Flight Track Log - Related Links

Times and Time Zones

All times are in EDT time to prevent confusion due to time zone crossing. See the UAL4380 flight status page for this flight to view local times or setup timezone preferences in your user account.

Time Position Orientation Groundspeed Altitude Reporting Facility
EDT Latitude Longitude Course Direction KTS MPH feet Rate Location/Type
Tue 06:09:30 AM 35.2311 -80.9569 192° South 161 185 1,400  Level Atlanta Center
Tue 06:10:07 AM 35.2586 -80.9739 333° Northwest 183 211 2,500 1,856 Climbing Atlanta Center
Tue 06:11:07 AM 35.2872 -81.0389 298° West 269 310 4,400 2,318 Climbing Atlanta Center
Tue 06:12:00 AM 35.2667 -81.1733 270° West  Level FlightAware Approximate
Tue 06:12:19 AM 35.2456 -81.1294 241° Southwest 293 337 7,600  Level Atlanta Center
Tue 06:13:00 AM 35.2028 -81.2440 199° South  Level FlightAware Approximate
Tue 06:13:19 AM 35.2036 -81.2072 237° Southwest 287 330 10,400  Level Atlanta Center
Tue 06:14:00 AM 35.1039 -81.2782 192° South  Level FlightAware Approximate
Tue 06:14:19 AM 35.1575 -81.2900 236° Southwest 292 336 11,700  Level Atlanta Center
Tue 06:15:19 AM 35.1056 -81.3908 238° Southwest 335 386 12,800 1,300 Climbing Atlanta Center
Tue 06:16:19 AM 35.0433 -81.5069 237° Southwest 368 423 14,300 1,500 Climbing Atlanta Center
Tue 06:17:19 AM 34.9892 -81.6175 239° Southwest 382 440 15,800 1,500 Climbing Atlanta Center
Tue 06:18:19 AM 34.9519 -81.7403 250° West 387 445 17,300 1,500 Climbing Atlanta Center
Tue 06:19:19 AM 34.9039 -81.8581 244° Southwest 392 451 18,800 1,350 Climbing Atlanta Center
Tue 06:20:19 AM 34.8492 -81.9558 236° Southwest 398 458 20,000 1,100 Climbing Atlanta Center
Tue 06:21:19 AM 34.7844 -82.0686 235° Southwest 405 466 21,000 1,000 Climbing Atlanta Center
Tue 06:22:19 AM 34.7172 -82.1814 234° Southwest 412 474 22,000 1,000 Climbing Atlanta Center
Tue 06:23:19 AM 34.6522 -82.2989 236° Southwest 412 474 23,000 1,050 Climbing Atlanta Center
Tue 06:24:19 AM 34.5850 -82.4164 235° Southwest 424 488 24,100 1,150 Climbing Atlanta Center
Tue 06:25:19 AM 34.5114 -82.5439 235° Southwest 429 494 25,300 1,050 Climbing Atlanta Center
Tue 06:26:19 AM 34.4439 -82.6636 236° Southwest 429 494 26,200 950 Climbing Atlanta Center
Tue 06:27:19 AM 34.3764 -82.7803 235° Southwest 429 494 27,200 1,050 Climbing Atlanta Center
Tue 06:28:19 AM 34.3086 -82.8919 234° Southwest 429 494 28,300 1,050 Climbing Atlanta Center
Tue 06:29:19 AM 34.2428 -83.0086 236° Southwest 429 494 29,300 1,000 Climbing Atlanta Center
Tue 06:30:19 AM 34.1750 -83.1247 235° Southwest 429 494 30,300 1,050 Climbing Atlanta Center
Tue 06:31:19 AM 34.1089 -83.2383 235° Southwest 429 494 31,400 1,050 Climbing Atlanta Center
Tue 06:32:19 AM 34.0408 -83.3544 235° Southwest 429 494 32,400 2,300 Climbing Atlanta Center
Tue 06:33:19 AM 33.9725 -83.4703 235° Southwest 429 494 36,000 950 Climbing Atlanta Center
Tue 06:34:19 AM 33.9122 -83.5708 234° Southwest 429 494 34,300 -350 Descending Atlanta Center
Tue 06:35:19 AM 33.8439 -83.6836 234° Southwest 429 494 35,300 850 Climbing Atlanta Center
Tue 06:36:19 AM 33.7794 -83.7964 236° Southwest 424 488 36,000 350 Climbing Atlanta Center
Tue 06:37:19 AM 33.7128 -83.9089 235° Southwest 424 488 36,000  Level Atlanta Center
Tue 06:38:19 AM 33.6336 -84.0389 234° Southwest 435 501 36,000  Level Atlanta Center
Tue 06:39:19 AM 33.5606 -84.1586 234° Southwest 441 507 36,000  Level Atlanta Center
Tue 06:40:19 AM 33.4892 -84.2781 234° Southwest 446 513 36,000  Level Atlanta Center
Tue 06:41:19 AM 33.4200 -84.3947 235° Southwest 446 513 36,000  Level Atlanta Center
Tue 06:42:19 AM 33.3467 -84.5164 234° Southwest 446 513 36,000  Level Atlanta Center
Tue 06:43:19 AM 33.2753 -84.6328 234° Southwest 444 511 36,000  Level Atlanta Center
Tue 06:44:19 AM 33.2119 -84.7367 234° Southwest 444 511 36,000  Level Atlanta Center
Tue 06:45:19 AM 33.1425 -84.8525 234° Southwest 439 505 36,000  Level Atlanta Center
Tue 06:46:19 AM 33.0728 -84.9633 233° Southwest 434 499 36,000  Level Atlanta Center
Tue 06:47:19 AM 33.0031 -85.0792 234° Southwest 434 499 36,000  Level Atlanta Center
Tue 06:48:19 AM 32.9247 -85.1944 231° Southwest 429 494 36,000  Level Atlanta Center
Tue 06:49:19 AM 32.8567 -85.3075 234° Southwest 424 488 36,000  Level Atlanta Center
Tue 06:50:19 AM 32.7889 -85.4200 234° Southwest 429 494 36,000  Level Atlanta Center
Tue 06:51:19 AM 32.7186 -85.5300 233° Southwest 429 494 36,000  Level Atlanta Center
Tue 06:52:19 AM 32.6483 -85.6400 233° Southwest 429 494 36,000  Level Atlanta Center
Tue 06:53:19 AM 32.5800 -85.7497 234° Southwest 429 494 36,000  Level Atlanta Center
Tue 06:54:19 AM 32.5117 -85.8617 234° Southwest 429 494 36,000  Level Atlanta Center
Tue 06:55:19 AM 32.4475 -85.9636 233° Southwest 439 505 36,000  Level Atlanta Center
Tue 06:56:19 AM 32.3789 -86.0753 234° Southwest 428 493 36,000  Level Atlanta Center
Tue 06:57:19 AM 32.3083 -86.1842 233° Southwest 428 493 36,000  Level Atlanta Center
Tue 06:58:19 AM 32.2417 -86.2931 234° Southwest 428 493 36,000  Level Atlanta Center
Tue 06:59:19 AM 32.1642 -86.4114 232° Southwest 420 483 36,000  Level Atlanta Center
Tue 07:00:19 AM 32.0869 -86.5172 229° Southwest 415 478 36,000  Level Atlanta Center
Tue 07:01:19 AM 32.0119 -86.6206 229° Southwest 420 483 36,000  Level Atlanta Center
Tue 07:02:19 AM 31.9389 -86.7114 227° Southwest 428 493 36,000  Level Atlanta Center
Tue 07:03:19 AM 31.8656 -86.8167 231° Southwest 428 493 36,000  Level Atlanta Center
Tue 07:04:19 AM 31.7903 -86.9194 229° Southwest 428 493 36,000  Level Atlanta Center
Tue 07:06:38 AM 31.6092 -87.1656 229° Southwest 411 473 36,000  Level Houston Center
Tue 07:07:39 AM 31.5356 -87.2678 230° Southwest 410 472 36,000  Level Houston Center
Tue 07:08:39 AM 31.4614 -87.3678 229° Southwest 408 470 36,000  Level Houston Center
Tue 07:09:40 AM 31.3886 -87.4675 229° Southwest 404 465 36,000  Level Houston Center
Tue 07:10:40 AM 31.3153 -87.5675 229° Southwest 405 466 36,000  Level Houston Center
Tue 07:11:41 AM 31.2428 -87.6675 230° Southwest 402 463 36,000  Level Houston Center
Tue 07:12:42 AM 31.1772 -87.7539 228° Southwest 402 463 36,000  Level Houston Center
Tue 07:13:43 AM 31.1039 -87.8522 229° Southwest 401 461 36,000  Level Houston Center
Tue 07:14:43 AM 31.0167 -87.9694 229° Southwest 400 460 36,000  Level Houston Center
Tue 07:15:44 AM 30.9431 -88.0672 229° Southwest 401 461 36,000  Level Houston Center
Tue 07:16:45 AM 30.8692 -88.1647 229° Southwest 402 463 36,000  Level Houston Center
Tue 07:17:46 AM 30.7964 -88.2628 229° Southwest 401 461 36,000  Level Houston Center
Tue 07:18:47 AM 30.7381 -88.3686 237° Southwest 394 453 36,000  Level Houston Center
Tue 07:19:47 AM 30.7036 -88.4847 251° West 381 438 36,000  Level Houston Center
Tue 07:20:48 AM 30.6689 -88.6022 251° West 385 443 36,000  Level Houston Center
Tue 07:21:49 AM 30.6347 -88.7186 251° West 383 441 36,000  Level Houston Center
Tue 07:22:50 AM 30.5989 -88.8356 250° West 383 441 36,000  Level Houston Center
Tue 07:23:51 AM 30.5650 -88.9522 251° West 383 441 36,000  Level Houston Center
Tue 07:24:52 AM 30.5308 -89.0694 251° West 384 442 36,000  Level Houston Center
Tue 07:25:53 AM 30.4967 -89.1853 251° West 382 440 36,000  Level Houston Center
Tue 07:26:53 AM 30.4611 -89.3014 250° West 383 441 36,000  Level Houston Center
Tue 07:27:54 AM 30.4258 -89.4172 251° West 383 441 36,000  Level Houston Center
Tue 07:28:55 AM 30.3914 -89.5319 251° West 379 436 36,000  Level Houston Center
Tue 07:29:56 AM 30.3497 -89.6681 250° West 374 430 36,000  Level Houston Center
Tue 07:30:57 AM 30.3164 -89.7639 248° West 377 434 36,000  Level Houston Center
Tue 07:31:58 AM 30.2817 -89.8833 251° West 373 429 36,000  Level Houston Center
Tue 07:32:59 AM 30.2478 -89.9994 251° West 379 436 36,000  Level Houston Center
Tue 07:34:00 AM 30.2133 -90.1119 251° West 376 433 36,000  Level Houston Center
Tue 07:35:01 AM 30.1767 -90.2258 250° West 379 436 36,000  Level Houston Center
Tue 07:36:02 AM 30.1336 -90.3628 250° West 379 436 36,000  Level Houston Center
Tue 07:37:03 AM 30.0972 -90.4775 250° West 381 438 36,000  Level Houston Center
Tue 07:38:03 AM 30.0617 -90.5931 250° West 382 440 36,000  Level Houston Center
Tue 07:39:04 AM 30.0242 -90.7075 249° West 383 441 36,000  Level Houston Center
Tue 07:40:05 AM 29.9881 -90.8233 250° West 385 443 36,000  Level Houston Center
Tue 07:41:06 AM 29.9514 -90.9383 250° West 384 442 36,000  Level Houston Center
Tue 07:42:07 AM 29.9153 -91.0528 250° West 381 438 36,000  Level Houston Center
Tue 07:43:08 AM 29.8789 -91.1672 250° West 382 440 36,000  Level Houston Center
Tue 07:44:09 AM 29.8411 -91.2819 249° West 383 441 36,000  Level Houston Center
Tue 07:45:10 AM 29.8047 -91.3967 250° West 382 440 36,000  Level Houston Center
Tue 07:46:11 AM 29.7672 -91.5117 249° West 382 440 36,000  Level Houston Center
Tue 07:47:13 AM 29.7303 -91.6253 249° West 380 437 36,000  Level Houston Center
Tue 07:48:14 AM 29.6869 -91.7572 249° West 377 434 36,000  Level Houston Center
Tue 07:49:15 AM 29.6508 -91.8725 250° West 381 438 36,000  Level Houston Center
Tue 07:50:16 AM 29.6131 -91.9861 249° West 382 440 36,000  Level Houston Center
Tue 07:51:17 AM 29.5744 -92.0997 249° West 382 440 36,000  Level Houston Center
Tue 07:52:18 AM 29.5369 -92.2142 249° West 384 442 36,000  Level Houston Center
Tue 07:53:19 AM 29.4994 -92.3292 249° West 385 443 36,000 -49 Level Houston Center
Tue 07:54:20 AM 29.4608 -92.4428 249° West 383 441 35,900  Descending Houston Center
Tue 07:55:22 AM 29.4608 -92.5681 270° West 396 456 36,000 49 Climbing Houston Center
Tue 07:56:23 AM 29.4667 -92.6903 273° West 386 444 36,000 -295 Level Houston Center
Tue 07:57:24 AM 29.4722 -92.8097 273° West 378 435 35,400 -1,475 Descending Houston Center
Tue 07:58:25 AM 29.4786 -92.9561 273° West 382 440 33,000 -2,146 Descending Houston Center
Tue 07:59:27 AM 29.4847 -93.0828 273° West 395 455 31,000 -2,000 Descending Houston Center
Tue 08:00:28 AM 29.4894 -93.2094 272° West 397 457 28,900 -2,016 Descending Houston Center
Tue 08:01:29 AM 29.4956 -93.3358 273° West 395 455 26,900 -2,016 Descending Houston Center
Tue 08:02:30 AM 29.5006 -93.4647 273° West 402 463 24,800 -2,016 Descending Houston Center
Tue 08:03:31 AM 29.5061 -93.6008 273° West 419 482 22,800 -2,000 Descending Houston Center
Tue 08:04:33 AM 29.5106 -93.7364 272° West 424 488 20,700 -2,000 Descending Houston Center
Tue 08:05:34 AM 29.5172 -93.8686 273° West 420 483 18,700 -2,235 Descending Houston Center
Tue 08:06:15 AM 29.5203 -93.9575 272° West 381 438 16,900 -2,164 Descending Houston Center
Tue 08:06:35 AM 29.5217 -93.9908 273° West 407 468 16,500 -2,051 Descending Houston Center
Tue 08:07:34 AM 29.5253 -94.1083 272° West 335 386 14,200 -1,842 Descending Houston Center
Tue 08:08:29 AM 29.5286 -94.2042 272° West 326 375 13,000 -590 Descending Houston Center
Tue 08:09:36 AM 29.5317 -94.3189 272° West 330 380 13,000 -636 Level Houston Center
Tue 08:10:41 AM 29.5647 -94.4144 292° West 318 366 11,600 -1,429 Descending Houston Center
Tue 08:11:42 AM 29.5983 -94.4947 296° West 289 333 10,000 -1,475 Descending Houston Center
Tue 08:12:43 AM 29.6475 -94.5586 312° West 281 323 8,600 -976 Descending Houston Center
Tue 08:13:45 AM 29.7031 -94.6183 317° Northwest 276 318 8,000 -293 Descending Houston Center
Tue 08:14:46 AM 29.7586 -94.6742 319° Northwest 270 311 8,000  Level Houston Center
Tue 08:15:54 AM 29.8278 -94.7453 318° Northwest 268 308 8,000  Level Houston Center
Tue 08:16:43 AM 29.8769 -94.7969 318° Northwest 285 328 8,000 -382 Level Houston Center
Tue 08:17:44 AM 29.9353 -94.8572 318° Northwest 281 323 7,300 -938 Descending Houston Center
Tue 08:18:51 AM 29.9864 -94.9328 308° West 268 308 6,000 -1,070 Descending Houston Center
Tue 08:19:53 AM 29.9942 -95.0153 276° West 273 314 5,000 -968 Descending Houston Center

Login

Don't have an account? Register now (free) for customized features, flight alerts, and more!